Time;durP1;ratioP1;P1;durP2;ratioP2;P2;SDS_P1;SDS_P2;PMS_P1;PMS_P2;Temp;Humidity;BMP_temperature;BMP_pressure;BME280_temperature;BME280_humidity;BME280_pressure;Samples;Min_cycle;Max_cycle;Signal;HPM_P1;HPM_P2
2023/06/20 00:00:06;;;;;;;;;21.67;19.00;;;;;23.07;100.00;100800.41;5039904;28;46017;-67
2023/06/20 00:02:32;;;;;;;;;28.00;21.00;;;;;23.08;100.00;100795.91;5042067;28;45371;-68
2023/06/20 00:05:00;;;;;;;;;19.67;17.33;;;;;23.01;100.00;100795.50;5060163;28;45404;-68
2023/06/20 00:07:25;;;;;;;;;22.00;20.00;;;;;22.97;100.00;100790.47;5056143;28;45454;-68
2023/06/20 00:09:51;;;;;;;;;17.33;17.33;;;;;23.00;100.00;100798.31;5038407;28;46100;-68
2023/06/20 00:12:16;;;;;;;;;19.00;19.00;;;;;22.94;100.00;100784.34;5040063;28;45480;-68
2023/06/20 00:14:42;;;;;;;;;21.00;18.33;;;;;22.92;100.00;100782.78;5040214;28;45521;-68
2023/06/20 00:17:07;;;;;;;;;21.67;20.00;;;;;22.90;100.00;100782.88;5039280;28;45207;-67
2023/06/20 00:19:33;;;;;;;;;14.67;14.67;;;;;22.81;100.00;100780.88;5039591;28;45413;-68
2023/06/20 00:21:58;;;;;;;;;19.00;16.00;;;;;22.80;100.00;100778.31;5039823;28;45343;-68
2023/06/20 00:24:24;;;;;;;;;22.67;17.67;;;;;22.73;100.00;100778.75;5039881;28;45455;-68
2023/06/20 00:26:49;;;;;;;;;18.33;16.67;;;;;22.74;100.00;100787.66;5039581;28;45321;-68
2023/06/20 00:29:14;;;;;;;;;18.67;17.00;;;;;22.75;100.00;100776.81;5039184;28;46201;-68
2023/06/20 00:31:40;;;;;;;;;19.00;18.00;;;;;22.67;100.00;100771.16;5039424;28;45380;-67
2023/06/20 00:34:05;;;;;;;;;21.00;18.00;;;;;22.70;100.00;100770.06;5038734;28;45450;-67
2023/06/20 00:36:31;;;;;;;;;24.00;18.33;;;;;22.67;100.00;100773.84;5039604;28;45431;-67
2023/06/20 00:38:56;;;;;;;;;19.33;16.00;;;;;22.68;100.00;100767.50;5039156;28;47244;-67
2023/06/20 00:41:23;;;;;;;;;19.00;19.00;;;;;22.63;100.00;100760.75;5038520;28;45326;-68
2023/06/20 00:43:49;;;;;;;;;20.67;17.33;;;;;22.63;100.00;100767.00;5039513;28;45349;-68
2023/06/20 00:46:22;;;;;;;;;18.33;16.33;;;;;22.60;100.00;100776.13;5039324;28;45302;-68
2023/06/20 00:48:48;;;;;;;;;23.00;19.67;;;;;22.54;100.00;100763.16;5019284;28;46375;-68
2023/06/20 00:51:15;;;;;;;;;21.00;19.00;;;;;22.57;100.00;100764.75;5019127;28;45452;-68
2023/06/20 00:53:41;;;;;;;;;22.67;20.67;;;;;22.52;100.00;100751.66;5023008;28;45452;-69
2023/06/20 00:56:09;;;;;;;;;20.67;18.33;;;;;22.47;100.00;100748.47;5039139;28;45226;-68
2023/06/20 00:58:34;;;;;;;;;18.33;17.00;;;;;22.51;100.00;100747.28;5039009;28;46396;-68
2023/06/20 01:00:59;;;;;;;;;20.67;17.67;;;;;22.48;100.00;100746.63;5039030;28;45388;-68
2023/06/20 01:03:25;;;;;;;;;19.00;16.33;;;;;22.47;100.00;100753.84;5038816;28;45785;-68
2023/06/20 01:06:09;;;;;;;;;21.00;20.67;;;;;22.35;100.00;100726.06;5039291;28;45262;-68
2023/06/20 01:08:59;;;;;;;;;16.67;15.33;;;;;22.43;100.00;100739.78;5038840;28;46673;-68
2023/06/20 01:11:47;;;;;;;;;20.33;19.33;;;;;22.46;100.00;100732.47;5038811;28;45333;-68
2023/06/20 01:14:31;;;;;;;;;16.33;16.33;;;;;22.45;100.00;100734.28;5038805;28;45571;-68
2023/06/20 01:17:00;;;;;;;;;21.00;18.67;;;;;22.36;100.00;100718.88;5038738;28;45278;-68
2023/06/20 01:19:43;;;;;;;;;21.33;20.67;;;;;22.31;100.00;100732.59;5038616;28;45531;-68
2023/06/20 01:22:19;;;;;;;;;19.00;18.00;;;;;22.21;100.00;100729.72;5038726;28;45239;-68
2023/06/20 01:24:51;;;;;;;;;20.67;18.67;;;;;22.16;100.00;100725.66;5038607;28;45409;-68
2023/06/20 01:27:28;;;;;;;;;20.67;14.67;;;;;21.97;100.00;100701.97;5038735;28;45336;-68
2023/06/20 01:30:01;;;;;;;;;18.67;16.33;;;;;22.19;100.00;100739.72;5038183;28;46200;-67
2023/06/20 01:32:28;;;;;;;;;20.00;18.33;;;;;22.11;100.00;100735.88;5036912;28;45457;-68
2023/06/20 01:35:07;;;;;;;;;23.00;19.33;;;;;22.09;100.00;100738.66;5021227;28;45347;-68
2023/06/20 01:37:35;;;;;;;;;18.33;18.33;;;;;22.08;100.00;100739.63;5038734;28;45401;-69
2023/06/20 01:40:05;;;;;;;;;21.00;18.67;;;;;22.04;100.00;100740.81;5038237;28;46227;-68
2023/06/20 01:42:33;;;;;;;;;25.00;21.00;;;;;22.05;100.00;100739.84;5038153;28;45323;-67
2023/06/20 01:45:01;;;;;;;;;21.67;20.67;;;;;21.97;100.00;100723.44;5038347;28;45369;-67
2023/06/20 01:47:29;;;;;;;;;20.67;18.33;;;;;22.02;100.00;100730.19;5038651;28;45374;-68
2023/06/20 01:49:56;;;;;;;;;22.00;22.00;;;;;21.94;100.00;100727.19;5037819;28;45549;-67
2023/06/20 01:52:23;;;;;;;;;19.33;19.00;;;;;21.97;100.00;100735.00;5037171;28;45421;-68
2023/06/20 01:54:50;;;;;;;;;20.67;20.00;;;;;21.96;100.00;100736.00;5038201;28;45394;-67
2023/06/20 01:57:17;;;;;;;;;20.33;19.00;;;;;21.88;100.00;100736.50;5038166;28;45283;-68
2023/06/20 01:59:43;;;;;;;;;20.67;19.67;;;;;21.91;100.00;100741.69;5037923;28;46675;-68
2023/06/20 02:02:11;;;;;;;;;18.33;17.33;;;;;21.88;100.00;100732.97;5038125;28;45402;-67
2023/06/20 02:04:37;;;;;;;;;21.67;20.33;;;;;21.82;100.00;100746.84;5037882;28;45340;-67
2023/06/20 02:07:05;;;;;;;;;23.67;18.33;;;;;21.74;100.00;100755.41;5037782;28;45401;-67
2023/06/20 02:09:32;;;;;;;;;21.00;21.00;;;;;21.60;100.00;100748.31;5037948;28;46240;-68
2023/06/20 02:11:59;;;;;;;;;25.67;21.67;;;;;21.63;100.00;100758.81;5037738;28;45321;-67
2023/06/20 02:14:25;;;;;;;;;21.67;19.33;;;;;21.54;100.00;100741.56;5038011;28;45452;-68
2023/06/20 02:16:51;;;;;;;;;21.33;18.67;;;;;21.58;100.00;100747.59;5038212;28;45281;-65
2023/06/20 02:19:17;;;;;;;;;23.00;21.67;;;;;21.59;100.00;100732.34;5037307;28;45545;-65
2023/06/20 02:21:44;;;;;;;;;18.33;18.33;;;;;21.55;100.00;100729.88;5037981;28;45324;-66
2023/06/20 02:24:14;;;;;;;;;19.33;19.33;;;;;21.56;100.00;100730.75;5037852;28;45297;-66
2023/06/20 02:26:44;;;;;;;;;24.67;22.67;;;;;21.51;100.00;100725.69;5037523;28;45369;-66
2023/06/20 02:29:10;;;;;;;;;30.33;29.00;;;;;21.43;100.00;100722.66;5037216;28;46718;-66
2023/06/20 02:31:40;;;;;;;;;30.00;27.67;;;;;21.44;100.00;100724.38;5037389;28;45183;-66
2023/06/20 02:34:09;;;;;;;;;22.00;20.67;;;;;21.43;100.00;100711.94;5037697;28;45380;-67
2023/06/20 02:36:36;;;;;;;;;26.33;20.33;;;;;21.37;100.00;100702.50;5037576;28;45447;-67
2023/06/20 02:39:04;;;;;;;;;29.67;23.33;;;;;21.31;100.00;100700.25;5037123;28;46919;-67
2023/06/20 02:41:30;;;;;;;;;20.33;18.00;;;;;21.31;100.00;100697.56;5037393;28;45375;-68
2023/06/20 02:43:56;;;;;;;;;23.00;22.33;;;;;21.24;100.00;100679.38;5037494;28;45758;-67
2023/06/20 02:46:40;;;;;;;;;21.67;20.33;;;;;21.31;100.00;100688.69;5037665;28;45306;-67
2023/06/20 02:49:17;;;;;;;;;30.00;24.00;;;;;21.32;100.00;100693.06;5037257;28;46550;-67
2023/06/20 02:52:32;;;;;;;;;20.67;20.00;;;;;21.30;100.00;100693.16;5036940;28;45475;-68
2023/06/20 02:55:19;;;;;;;;;22.00;22.00;;;;;21.37;100.00;100712.38;5028002;28;45442;-67
2023/06/20 02:57:50;;;;;;;;;22.67;22.67;;;;;21.33;100.00;100717.09;5035125;28;45397;-68
2023/06/20 03:00:16;;;;;;;;;24.33;21.00;;;;;21.24;100.00;100701.63;5034745;28;46482;-67
2023/06/20 03:02:55;;;;;;;;;24.33;23.00;;;;;21.36;100.00;100727.59;5035147;28;45546;-67
2023/06/20 03:05:22;;;;;;;;;17.33;17.00;;;;;21.35;100.00;100730.38;5034993;28;45581;-68
2023/06/20 03:07:48;;;;;;;;;22.67;21.33;;;;;21.34;100.00;100726.81;5034792;28;45314;-68
2023/06/20 03:10:14;;;;;;;;;24.00;22.00;;;;;21.35;100.00;100725.88;5034798;28;46401;-68
2023/06/20 03:12:40;;;;;;;;;22.33;20.67;;;;;21.39;100.00;100729.19;5034625;28;45441;-68
2023/06/20 03:15:06;;;;;;;;;23.00;23.00;;;;;21.39;100.00;100724.69;5035066;28;45402;-68
2023/06/20 03:17:35;;;;;;;;;23.00;22.00;;;;;21.28;100.00;100707.66;5035202;28;45504;-68
2023/06/20 03:20:03;;;;;;;;;23.67;23.33;;;;;21.26;100.00;100707.75;5034624;28;45432;-68
2023/06/20 03:22:30;;;;;;;;;22.33;21.67;;;;;21.25;100.00;100716.75;5033955;28;45366;-65
2023/06/20 03:24:55;;;;;;;;;21.67;20.67;;;;;21.26;100.00;100717.59;5034776;28;45362;-66
2023/06/20 03:27:20;;;;;;;;;25.33;22.67;;;;;21.18;100.00;100705.59;5034601;28;45469;-66
2023/06/20 03:29:46;;;;;;;;;21.67;20.67;;;;;21.03;100.00;100683.41;5034593;28;46586;-66
2023/06/20 03:32:11;;;;;;;;;27.33;22.00;;;;;21.25;100.00;100714.06;5031664;28;45326;-65
2023/06/20 03:34:37;;;;;;;;;21.00;19.67;;;;;21.22;100.00;100709.78;5031371;28;45538;-66
2023/06/20 03:37:03;;;;;;;;;21.00;19.33;;;;;21.25;100.00;100714.06;5037074;28;45312;-67
2023/06/20 03:39:28;;;;;;;;;26.33;23.00;;;;;21.19;100.00;100717.19;5036435;28;45994;-67
2023/06/20 03:41:53;;;;;;;;;21.00;21.00;;;;;21.16;100.00;100696.81;5036874;28;45401;-66
2023/06/20 03:44:19;;;;;;;;;24.67;21.33;;;;;21.21;100.00;100705.38;5036857;28;45650;-67
2023/06/20 03:46:44;;;;;;;;;33.00;26.67;;;;;21.11;100.00;100698.94;5036813;28;45247;-67
2023/06/20 03:49:09;;;;;;;;;25.00;23.00;;;;;21.21;100.00;100716.09;5035933;28;45453;-67
2023/06/20 03:51:35;;;;;;;;;20.67;20.00;;;;;21.23;100.00;100702.59;5036428;28;45172;-67
2023/06/20 03:54:00;;;;;;;;;28.33;27.00;;;;;21.24;100.00;100704.31;5036798;28;45383;-67
2023/06/20 03:56:25;;;;;;;;;27.00;22.67;;;;;21.24;100.00;100696.28;5036967;28;45342;-67
2023/06/20 03:58:51;;;;;;;;;43.00;37.00;;;;;21.27;100.00;100700.56;5036360;28;46198;-67
2023/06/20 04:01:16;;;;;;;;;19.00;16.33;;;;;21.26;100.00;100706.88;5036578;28;45232;-67
2023/06/20 04:03:41;;;;;;;;;23.67;20.67;;;;;21.26;100.00;100715.81;5036651;28;45430;-67
2023/06/20 04:06:07;;;;;;;;;22.67;19.33;;;;;21.29;100.00;100710.22;5036688;28;45372;-67
2023/06/20 04:08:32;;;;;;;;;20.33;20.00;;;;;21.31;100.00;100702.09;5036249;28;47005;-67
2023/06/20 04:10:57;;;;;;;;;22.67;20.33;;;;;21.27;100.00;100698.75;5036293;28;45440;-67
2023/06/20 04:13:23;;;;;;;;;21.00;20.33;;;;;21.20;100.00;100690.28;5036412;28;45852;-67
2023/06/20 04:15:48;;;;;;;;;32.00;26.67;;;;;21.18;100.00;100678.81;5037657;28;45339;-67
2023/06/20 04:18:14;;;;;;;;;23.33;22.33;;;;;21.10;100.00;100666.91;5039357;28;46732;-67
2023/06/20 04:20:41;;;;;;;;;28.67;24.67;;;;;21.13;100.00;100680.97;5039749;28;45242;-67
2023/06/20 04:23:06;;;;;;;;;24.33;22.33;;;;;21.08;100.00;100669.69;5039870;28;45404;-67
2023/06/20 04:25:31;;;;;;;;;26.67;24.00;;;;;21.12;100.00;100676.56;5039855;28;45498;-67
2023/06/20 04:27:57;;;;;;;;;30.67;27.67;;;;;20.92;100.00;100634.22;5039315;28;45918;-67
2023/06/20 04:30:23;;;;;;;;;29.33;26.67;;;;;21.07;100.00;100659.94;5039414;28;45343;-67
2023/06/20 04:32:48;;;;;;;;;28.33;26.33;;;;;21.16;100.00;100680.75;5039382;28;45338;-68
2023/06/20 04:35:14;;;;;;;;;25.67;25.67;;;;;21.12;100.00;100679.25;5039823;28;45345;-68
2023/06/20 04:37:40;;;;;;;;;27.00;26.00;;;;;21.12;100.00;100665.00;5039046;28;45527;-68
2023/06/20 04:40:07;;;;;;;;;23.33;20.33;;;;;21.22;100.00;100674.13;5039248;28;45223;-68
2023/06/20 04:42:33;;;;;;;;;22.00;20.67;;;;;21.19;100.00;100669.81;5039504;28;45444;-68
2023/06/20 04:44:58;;;;;;;;;28.00;23.33;;;;;21.21;100.00;100667.88;5039361;28;45219;-67
2023/06/20 04:47:23;;;;;;;;;26.33;23.33;;;;;21.30;100.00;100678.94;5038183;28;46614;-66
2023/06/20 04:49:49;;;;;;;;;17.33;17.33;;;;;21.33;100.00;100681.41;5038933;28;45431;-68
2023/06/20 04:52:14;;;;;;;;;26.67;23.00;;;;;21.31;100.00;100672.63;5030217;28;45479;-68
2023/06/20 04:54:40;;;;;;;;;24.00;19.67;;;;;21.37;100.00;100672.19;5019462;28;45376;-68
2023/06/20 04:57:05;;;;;;;;;21.00;19.33;;;;;21.38;100.00;100661.38;5024667;28;46946;-68
2023/06/20 04:59:31;;;;;;;;;20.67;18.33;;;;;21.42;100.00;100645.06;5038962;28;45453;-69
2023/06/20 05:01:56;;;;;;;;;25.00;21.67;;;;;21.41;100.00;100636.19;5039154;28;45393;-66
2023/06/20 05:04:22;;;;;;;;;22.67;20.00;;;;;21.47;100.00;100651.81;5039072;28;45406;-66
2023/06/20 05:06:47;;;;;;;;;20.00;16.67;;;;;21.38;100.00;100639.09;5038648;28;45700;-68
2023/06/20 05:09:13;;;;;;;;;21.33;21.33;;;;;21.38;100.00;100636.41;5039759;28;45468;-64
2023/06/20 05:11:39;;;;;;;;;26.33;19.67;;;;;21.48;100.00;100658.91;5053025;28;45328;-64
2023/06/20 05:14:04;;;;;;;;;22.33;18.00;;;;;21.43;100.00;100644.97;5058554;28;45435;-68
2023/06/20 05:16:29;;;;;;;;;21.00;20.00;;;;;21.42;100.00;100634.38;5038151;28;46363;-70
2023/06/20 05:18:55;;;;;;;;;20.67;18.00;;;;;21.43;100.00;100614.66;5025032;28;45242;-68
2023/06/20 05:21:20;;;;;;;;;22.00;19.00;;;;;21.66;100.00;100638.00;5018567;28;45294;-68
2023/06/20 05:23:45;;;;;;;;;22.33;20.67;;;;;21.54;100.00;100614.78;5019067;28;45448;-68
2023/06/20 05:26:11;;;;;;;;;23.00;21.00;;;;;21.67;100.00;100636.22;5026701;28;45757;-68
2023/06/20 05:28:37;;;;;;;;;20.33;18.33;;;;;21.72;100.00;100648.28;5049987;28;45568;-68
2023/06/20 05:31:02;;;;;;;;;21.33;18.00;;;;;21.79;100.00;100643.34;5058849;28;45369;-68
2023/06/20 05:33:28;;;;;;;;;20.00;20.00;;;;;21.76;100.00;100640.06;5047168;28;45460;-68
2023/06/20 05:35:53;;;;;;;;;22.33;20.00;;;;;21.88;100.00;100647.19;5038384;28;45348;-67
2023/06/20 05:38:19;;;;;;;;;21.00;18.00;;;;;21.96;100.00;100641.28;5018847;28;45565;-69
2023/06/20 05:40:44;;;;;;;;;23.67;19.33;;;;;21.94;100.00;100629.81;5019130;28;45460;-68
2023/06/20 05:43:09;;;;;;;;;22.67;21.67;;;;;21.99;100.00;100638.41;5051561;28;45164;-68
2023/06/20 05:45:35;;;;;;;;;24.33;19.67;;;;;22.01;100.00;100642.66;5051713;28;46286;-68
2023/06/20 05:48:00;;;;;;;;;28.00;23.00;;;;;22.03;100.00;100647.91;5038177;28;45397;-69
2023/06/20 05:50:25;;;;;;;;;24.67;22.00;;;;;22.05;100.00;100651.34;5038398;28;45382;-67
2023/06/20 05:52:52;;;;;;;;;24.67;21.67;;;;;22.06;100.00;100650.34;5034743;28;45607;-65
2023/06/20 05:55:17;;;;;;;;;20.67;19.33;;;;;22.09;100.00;100650.16;5035377;28;46554;-67
2023/06/20 05:57:43;;;;;;;;;19.33;18.00;;;;;22.05;100.00;100641.47;5045261;28;45468;-67
2023/06/20 06:00:11;;;;;;;;;25.00;24.00;;;;;22.16;100.00;100650.56;5046949;28;45306;-67
2023/06/20 06:02:37;;;;;;;;;25.00;22.67;;;;;22.14;100.00;100641.78;5028119;28;45396;-66
2023/06/20 06:05:02;;;;;;;;;23.33;20.33;;;;;22.27;100.00;100650.63;5018199;28;46492;-68
2023/06/20 06:07:27;;;;;;;;;25.00;20.00;;;;;22.34;100.00;100654.59;5033716;28;45281;-68
2023/06/20 06:09:53;;;;;;;;;25.33;22.33;;;;;22.40;100.00;100650.63;5032296;28;46678;-69
2023/06/20 06:12:18;;;;;;;;;22.00;20.33;;;;;22.45;100.00;100637.69;5038341;28;45411;-69
2023/06/20 06:14:43;;;;;;;;;23.00;18.00;;;;;22.45;100.00;100642.22;5037681;28;45445;-68
2023/06/20 06:17:09;;;;;;;;;25.33;19.67;;;;;22.52;100.00;100647.00;5033834;28;45641;-68
2023/06/20 06:19:35;;;;;;;;;19.00;18.00;;;;;22.53;100.00;100629.94;5037318;28;45936;-69
2023/06/20 06:22:00;;;;;;;;;21.33;18.67;;;;;22.69;100.00;100632.31;5038086;28;45390;-70
2023/06/20 06:24:25;;;;;;;;;21.67;18.33;;;;;22.71;100.00;100633.09;5037736;28;45460;-68
2023/06/20 06:26:51;;;;;;;;;20.33;16.67;;;;;22.78;100.00;100633.44;5037719;28;45416;-69
2023/06/20 06:29:18;;;;;;;;;19.33;17.67;;;;;22.79;100.00;100635.16;5037498;28;45705;-69
2023/06/20 06:31:43;;;;;;;;;19.67;16.67;;;;;22.80;100.00;100627.97;5037994;28;45320;-69
2023/06/20 06:34:08;;;;;;;;;14.67;14.00;;;;;22.79;100.00;100629.81;5037550;28;45443;-69
2023/06/20 06:36:34;;;;;;;;;20.33;17.00;;;;;22.85;100.00;100632.00;5037803;28;45320;-69
2023/06/20 06:39:00;;;;;;;;;18.33;16.33;;;;;22.91;100.00;100634.22;5037058;28;45587;-68
2023/06/20 06:41:26;;;;;;;;;19.00;16.33;;;;;22.90;100.00;100624.47;5037922;28;45298;-69
2023/06/20 06:43:52;;;;;;;;;24.00;19.33;;;;;23.01;100.00;100636.22;5037411;28;45209;-68
2023/06/20 06:46:17;;;;;;;;;20.00;17.00;;;;;22.98;100.00;100610.44;5037494;28;45297;-69
2023/06/20 06:48:42;;;;;;;;;16.67;15.67;;;;;23.07;100.00;100622.31;5037728;28;45219;-69
2023/06/20 06:51:08;;;;;;;;;21.00;16.00;;;;;23.11;100.00;100615.75;5037557;28;45435;-70
2023/06/20 06:53:33;;;;;;;;;17.00;13.67;;;;;23.22;100.00;100621.16;5037207;28;47249;-69
2023/06/20 06:55:58;;;;;;;;;13.67;13.67;;;;;23.06;100.00;100577.59;5037389;28;45421;-69
2023/06/20 06:58:24;;;;;;;;;20.33;14.00;;;;;23.33;100.00;100614.06;5037121;28;45521;-69
2023/06/20 07:00:50;;;;;;;;;17.00;16.00;;;;;23.38;100.00;100607.38;5036531;28;45421;-69
2023/06/20 07:03:15;;;;;;;;;19.67;15.33;;;;;23.21;100.00;100580.97;5036984;28;46398;-70
2023/06/20 07:05:40;;;;;;;;;16.67;14.00;;;;;23.44;99.05;100601.50;5037155;28;45452;-70
2023/06/20 07:08:06;;;;;;;;;15.33;14.00;;;;;23.60;98.06;100611.88;5037180;28;45408;-71
2023/06/20 07:10:31;;;;;;;;;15.33;14.00;;;;;23.70;99.35;100614.69;5037391;28;45354;-70
2023/06/20 07:12:56;;;;;;;;;23.00;20.33;;;;;23.98;97.30;100617.88;5036957;28;45388;-70
2023/06/20 07:15:22;;;;;;;;;15.00;14.00;;;;;24.08;96.46;100605.38;5036967;28;45509;-71
2023/06/20 07:17:47;;;;;;;;;11.00;11.00;;;;;24.16;94.21;100575.13;5037296;28;45779;-70
2023/06/20 07:20:13;;;;;;;;;12.33;12.33;;;;;24.67;92.50;100604.09;5036982;28;45411;-70
2023/06/20 07:22:39;;;;;;;;;11.67;11.67;;;;;24.82;90.62;100615.38;5036883;28;46301;-71
2023/06/20 07:25:05;;;;;;;;;11.00;11.00;;;;;24.78;89.54;100611.25;5036763;28;45452;-71
2023/06/20 07:27:30;;;;;;;;;17.00;12.67;;;;;24.75;89.30;100605.28;5036846;28;45263;-72
2023/06/20 07:29:55;;;;;;;;;14.67;14.67;;;;;25.05;88.96;100617.09;5036483;28;45356;-71
2023/06/20 07:32:21;;;;;;;;;16.67;14.33;;;;;25.05;88.34;100622.47;5036550;28;47363;-69
2023/06/20 07:34:47;;;;;;;;;19.00;16.00;;;;;25.11;89.16;100632.72;5036777;28;45274;-72
2023/06/20 07:37:12;;;;;;;;;17.00;17.00;;;;;25.16;87.52;100633.19;5036789;28;45444;-71
2023/06/20 07:39:40;;;;;;;;;15.33;15.00;;;;;25.12;86.66;100642.50;5036663;28;45438;-71
2023/06/20 07:42:05;;;;;;;;;19.00;16.67;;;;;25.02;88.59;100643.31;5036632;28;47611;-71
2023/06/20 07:44:31;;;;;;;;;17.67;16.33;;;;;24.95;88.37;100642.13;5036452;28;45336;-70
2023/06/20 07:46:56;;;;;;;;;20.33;15.67;;;;;24.90;88.55;100621.97;5036482;28;45430;-71
2023/06/20 07:49:21;;;;;;;;;16.33;16.33;;;;;24.86;88.38;100634.81;5037076;28;45470;-71
2023/06/20 07:51:47;;;;;;;;;20.33;20.00;;;;;24.70;89.06;100597.56;5038972;28;46591;-71
2023/06/20 07:54:14;;;;;;;;;16.33;16.00;;;;;24.94;87.99;100629.63;5040008;28;45879;-70
2023/06/20 07:56:39;;;;;;;;;15.67;15.67;;;;;25.05;87.69;100646.72;5040269;28;45407;-72
2023/06/20 07:59:04;;;;;;;;;14.33;14.33;;;;;25.01;87.46;100649.69;5040153;28;45431;-71
2023/06/20 08:01:31;;;;;;;;;18.67;17.33;;;;;25.13;87.09;100655.00;5039672;28;46253;-71
2023/06/20 08:03:56;;;;;;;;;17.33;17.33;;;;;25.20;86.41;100664.28;5040002;28;45414;-71
2023/06/20 08:06:21;;;;;;;;;17.67;17.00;;;;;25.25;86.74;100666.56;5040046;28;45320;-71
2023/06/20 08:08:47;;;;;;;;;17.33;17.00;;;;;25.31;86.28;100664.25;5040101;28;45293;-71
2023/06/20 08:11:12;;;;;;;;;16.33;16.00;;;;;25.15;86.26;100623.38;5039751;28;45449;-70
2023/06/20 08:13:37;;;;;;;;;15.00;14.67;;;;;25.49;86.92;100675.25;5039707;28;45329;-71
2023/06/20 08:16:03;;;;;;;;;16.67;15.67;;;;;25.68;86.34;100668.25;5039607;28;45483;-71
2023/06/20 08:18:29;;;;;;;;;15.00;13.67;;;;;25.63;84.36;100616.56;5039955;28;45295;-71
2023/06/20 08:20:54;;;;;;;;;18.00;15.33;;;;;26.11;83.97;100650.09;5039498;28;46385;-71
2023/06/20 08:23:25;;;;;;;;;12.33;12.33;;;;;26.16;83.26;100640.59;5039262;28;45378;-71
2023/06/20 08:25:52;;;;;;;;;12.33;12.00;;;;;26.15;82.34;100649.69;5039922;28;45368;-71
2023/06/20 08:28:17;;;;;;;;;11.67;11.67;;;;;26.12;82.98;100646.41;5039763;28;45562;-70
2023/06/20 08:30:42;;;;;;;;;12.67;11.00;;;;;26.11;81.10;100642.00;5038902;28;46665;-70
2023/06/20 08:33:08;;;;;;;;;12.00;10.67;;;;;26.11;81.52;100637.44;5039473;28;45318;-70
2023/06/20 08:35:33;;;;;;;;;12.33;12.00;;;;;26.20;81.86;100641.19;5039632;28;45282;-71
2023/06/20 08:37:58;;;;;;;;;10.00;10.00;;;;;26.13;81.71;100634.63;5039629;28;45532;-70
2023/06/20 08:40:24;;;;;;;;;10.00;10.00;;;;;26.19;81.17;100631.38;5039152;28;46547;-71
2023/06/20 08:42:49;;;;;;;;;13.00;10.33;;;;;26.35;80.81;100634.38;5039316;28;45444;-71
2023/06/20 08:45:16;;;;;;;;;10.67;9.33;;;;;26.36;80.51;100632.53;5039284;28;45389;-68
2023/06/20 08:47:41;;;;;;;;;26.67;25.33;;;;;26.44;80.18;100621.03;5039672;28;45358;-69
2023/06/20 08:50:07;;;;;;;;;9.00;9.00;;;;;26.47;79.94;100618.03;5038887;28;46318;-70
2023/06/20 08:52:44;;;;;;;;;8.33;8.33;;;;;26.66;79.25;100630.69;5039287;28;45418;-71
2023/06/20 08:55:10;;;;;;;;;12.67;10.33;;;;;26.58;77.51;100617.91;5039177;28;45218;-71
2023/06/20 08:57:36;;;;;;;;;11.00;9.33;;;;;26.63;78.48;100625.56;5039248;28;45382;-70
2023/06/20 09:00:02;;;;;;;;;24.00;23.00;;;;;26.67;77.33;100627.00;5038794;28;45521;-70
2023/06/20 09:02:27;;;;;;;;;12.67;9.33;;;;;26.83;76.82;100624.59;5038365;28;45480;-71
2023/06/20 09:05:03;;;;;;;;;11.00;10.00;;;;;26.99;76.24;100624.00;5040363;27;45563;-69
2023/06/20 09:07:37;;;;;;;;;10.00;10.00;;;;;27.08;76.17;100633.09;5039339;28;45402;-71
2023/06/20 09:10:04;;;;;;;;;10.67;9.33;;;;;27.06;75.07;100619.72;5038823;28;45404;-71
2023/06/20 09:12:44;;;;;;;;;8.67;8.33;;;;;27.21;75.32;100635.47;5039123;28;45355;-69
2023/06/20 09:15:20;;;;;;;;;9.33;9.33;;;;;27.35;75.72;100631.50;5038869;28;45589;-68
2023/06/20 09:17:53;;;;;;;;;11.33;9.67;;;;;27.49;72.18;100622.88;5039113;28;45270;-70
2023/06/20 09:20:20;;;;;;;;;8.67;8.67;;;;;27.68;72.48;100627.38;5038649;28;45766;-70
2023/06/20 09:22:45;;;;;;;;;12.33;10.33;;;;;27.82;71.64;100633.28;5038730;28;45337;-71
2023/06/20 09:25:12;;;;;;;;;5.00;5.00;;;;;27.89;71.42;100635.25;5038905;28;45211;-71
2023/06/20 09:27:40;;;;;;;;;9.00;9.00;;;;;28.01;71.76;100638.63;5038997;28;45425;-72
2023/06/20 09:30:06;;;;;;;;;11.00;10.00;;;;;28.06;69.68;100625.50;5038243;28;45425;-71
2023/06/20 09:32:42;;;;;;;;;9.67;9.67;;;;;28.33;70.13;100623.72;5038479;28;45405;-69
2023/06/20 09:35:09;;;;;;;;;8.00;8.00;;;;;28.75;69.68;100625.00;5038613;28;45364;-71
2023/06/20 09:37:42;;;;;;;;;11.00;9.67;;;;;29.06;67.36;100611.84;5038848;28;45321;-70
2023/06/20 09:40:12;;;;;;;;;11.67;10.00;;;;;29.94;65.73;100609.97;5038178;28;45412;-70
2023/06/20 09:42:39;;;;;;;;;9.67;8.67;;;;;31.57;59.12;100608.28;5038388;28;45363;-71
2023/06/20 09:45:05;;;;;;;;;7.33;7.33;;;;;33.32;56.16;100615.06;5038494;28;45247;-71
2023/06/20 09:47:31;;;;;;;;;10.00;8.67;;;;;34.99;50.55;100614.22;5038585;28;45259;-71
2023/06/20 09:49:59;;;;;;;;;7.67;7.33;;;;;36.40;45.40;100617.66;5038100;28;46014;-70
2023/06/20 09:52:32;;;;;;;;;8.33;8.00;;;;;37.56;41.61;100604.50;5038196;28;45309;-69
2023/06/20 09:55:02;;;;;;;;;9.00;7.67;;;;;38.64;42.13;100619.34;5038409;28;45539;-69
2023/06/20 09:57:50;;;;;;;;;14.33;14.33;;;;;39.20;38.23;100611.25;5038629;28;45596;-68
2023/06/20 10:00:17;;;;;;;;;5.00;5.00;;;;;39.32;39.61;100618.53;5037964;28;46252;-69
2023/06/20 10:02:47;;;;;;;;;8.67;8.67;;;;;39.28;38.25;100602.69;5037861;28;45385;-69
2023/06/20 10:05:14;;;;;;;;;9.33;9.00;;;;;39.32;37.87;100606.66;5038077;28;45307;-68
2023/06/20 10:07:41;;;;;;;;;8.00;7.00;;;;;39.48;33.76;100602.44;5038344;28;45524;-68
2023/06/20 10:10:08;;;;;;;;;9.33;9.33;;;;;39.69;35.27;100595.63;5037830;28;46427;-68
2023/06/20 10:12:35;;;;;;;;;7.00;5.33;;;;;40.16;36.52;100595.03;5037543;28;45434;-69
2023/06/20 10:15:03;;;;;;;;;7.33;7.00;;;;;40.49;35.21;100600.06;5037144;28;45420;-68
2023/06/20 10:17:35;;;;;;;;;7.00;7.00;;;;;40.28;33.38;100581.25;5037824;28;45306;-68
2023/06/20 10:20:04;;;;;;;;;9.67;8.33;;;;;39.68;34.48;100575.50;5037551;28;47353;-68
2023/06/20 10:22:33;;;;;;;;;5.33;5.33;;;;;39.15;37.67;100574.19;5037858;28;45288;-68
2023/06/20 10:25:12;;;;;;;;;6.00;6.00;;;;;38.96;35.87;100569.72;5037889;28;45341;-69
2023/06/20 10:27:43;;;;;;;;;7.33;7.33;;;;;39.46;35.38;100557.72;5037891;28;45346;-68
2023/06/20 10:30:13;;;;;;;;;8.00;8.00;;;;;40.21;34.11;100556.53;5037507;28;46167;-70
2023/06/20 10:33:10;;;;;;;;;7.00;7.00;;;;;40.84;33.63;100546.75;5037864;28;45243;-69
2023/06/20 10:35:35;;;;;;;;;9.75;8.50;;;;;41.67;33.43;100552.13;5037719;28;45301;-68
2023/06/20 10:38:10;;;;;;;;;8.00;8.00;;;;;42.09;32.11;100557.38;5037773;28;45353;-69
2023/06/20 10:40:37;;;;;;;;;10.75;9.00;;;;;42.60;30.13;100564.91;5037339;28;47492;-68
2023/06/20 10:43:14;;;;;;;;;9.75;8.25;;;;;43.00;30.25;100560.19;5037464;28;45309;-69
2023/06/20 10:45:52;;;;;;;;;6.00;6.00;;;;;43.13;28.77;100576.47;5037505;28;45373;-69
2023/06/20 10:48:20;;;;;;;;;6.00;6.00;;;;;43.43;27.70;100561.38;5037736;28;45275;-69
2023/06/20 10:50:45;;;;;;;;;8.75;7.50;;;;;43.63;28.28;100577.38;5037074;28;46516;-68
2023/06/20 10:53:13;;;;;;;;;7.00;7.00;;;;;43.41;28.13;100581.00;5037384;28;45403;-69
2023/06/20 10:55:38;;;;;;;;;5.50;5.25;;;;;42.43;27.96;100567.63;5037372;28;45402;-69
2023/06/20 10:58:04;;;;;;;;;6.00;5.50;;;;;41.38;29.26;100573.41;5037567;28;45410;-69
2023/06/20 11:00:29;;;;;;;;;7.00;7.00;;;;;40.29;30.44;100577.41;5037105;28;47469;-69
2023/06/20 11:02:55;;;;;;;;;7.67;7.67;;;;;39.09;31.53;100582.53;5037169;28;45275;-69
2023/06/20 11:05:26;;;;;;;;;8.67;8.67;;;;;37.94;32.36;100562.47;5037482;28;45429;-69
2023/06/20 11:07:52;;;;;;;;;9.00;9.00;;;;;37.23;33.58;100562.28;5037446;28;45377;-68